Terminal Aerodrome Forecast
Issued by NWS Kansas City/Pleasant Hill, MO

Home | Current Version | Previous Version | Text Only | Print | Product List | Glossary On
Versions: 1 2 3 4 5 6 7 8 9 10 11
026
FTUS43 KEAX 202032 AAA
TAFMCI
TAF AMD
KMCI 202032Z 2021/2118 36012KT P6SM SCT035 BKN100
     FM210100 04006KT P6SM FEW250=

USA.gov is the U.S. government's official web portal to all federal, state and local government web resources and services.